createdAt,value
2023-04-27T00:01:13.161Z,99.90
2023-04-27T00:03:40.184Z,99.90
2023-04-27T00:06:08.237Z,99.90
2023-04-27T00:08:35.386Z,99.90
2023-04-27T00:11:02.436Z,99.90
2023-04-27T00:13:29.316Z,99.90
2023-04-27T00:15:56.189Z,99.90
2023-04-27T00:18:22.995Z,99.90
2023-04-27T00:20:50.070Z,99.90
2023-04-27T00:23:16.954Z,99.90
2023-04-27T00:25:43.779Z,99.90
2023-04-27T00:28:10.656Z,99.90
2023-04-27T00:30:37.790Z,99.90
2023-04-27T00:33:04.785Z,99.90
2023-04-27T00:35:33.394Z,99.90
2023-04-27T00:38:00.294Z,99.90
2023-04-27T00:40:27.063Z,99.90
2023-04-27T00:42:53.859Z,99.90
2023-04-27T00:45:20.686Z,99.90
2023-04-27T00:47:47.562Z,99.90
2023-04-27T00:50:14.492Z,99.90
2023-04-27T00:52:41.269Z,99.90
2023-04-27T00:55:09.532Z,99.90
2023-04-27T00:57:36.547Z,99.90
2023-04-27T01:00:07.230Z,99.90
2023-04-27T01:02:34.973Z,99.90
2023-04-27T01:05:02.923Z,99.90
2023-04-27T01:07:29.820Z,99.90
2023-04-27T01:09:58.160Z,99.90
2023-04-27T01:12:25.144Z,99.90
2023-04-27T01:14:52.021Z,99.90
2023-04-27T01:17:18.810Z,99.90
2023-04-27T01:19:45.898Z,99.90
2023-04-27T01:22:15.118Z,99.90
2023-04-27T01:24:41.908Z,99.90
2023-04-27T01:27:08.838Z,99.90
2023-04-27T01:29:37.199Z,99.90
2023-04-27T01:32:04.837Z,99.90
2023-04-27T01:34:31.729Z,99.90
2023-04-27T01:36:58.612Z,99.90
2023-04-27T01:39:25.670Z,99.90
2023-04-27T01:41:52.509Z,99.90
2023-04-27T01:44:21.065Z,99.90
2023-04-27T01:46:48.001Z,99.90
2023-04-27T01:49:15.107Z,99.90
2023-04-27T01:51:42.158Z,99.90
2023-04-27T01:54:08.944Z,99.90
2023-04-27T01:56:36.316Z,99.90
2023-04-27T01:59:03.103Z,99.90
2023-04-27T02:01:31.382Z,99.90
2023-04-27T02:03:58.375Z,99.90
2023-04-27T02:06:25.296Z,99.90
2023-04-27T02:08:52.031Z,99.90
2023-04-27T02:11:19.294Z,99.90
2023-04-27T02:13:46.586Z,99.90
2023-04-27T02:16:13.403Z,99.90
2023-04-27T02:18:40.790Z,99.90
2023-04-27T02:21:10.758Z,99.90
2023-04-27T02:23:37.719Z,99.90
2023-04-27T02:26:04.568Z,99.90
2023-04-27T02:28:32.224Z,99.90
2023-04-27T02:31:00.401Z,99.90
2023-04-27T02:33:27.207Z,99.90
2023-04-27T02:35:53.995Z,99.90
2023-04-27T02:38:21.440Z,99.90
2023-04-27T02:40:52.757Z,99.90
2023-04-27T02:43:19.557Z,99.90
2023-04-27T02:45:46.444Z,99.90
2023-04-27T02:48:13.319Z,99.90
2023-04-27T02:50:43.419Z,99.90
2023-04-27T02:53:10.830Z,99.90
2023-04-27T02:55:38.338Z,99.90
2023-04-27T02:58:05.221Z,99.90
2023-04-27T03:00:32.798Z,99.90
2023-04-27T03:02:59.653Z,99.90
2023-04-27T03:05:28.849Z,99.90
2023-04-27T03:07:56.187Z,99.90
2023-04-27T03:10:22.962Z,99.90
2023-04-27T03:12:49.781Z,99.90
2023-04-27T03:15:16.653Z,99.90
2023-04-27T03:17:43.557Z,99.90
2023-04-27T03:20:11.104Z,99.90
2023-04-27T03:22:37.901Z,99.90
2023-04-27T03:25:05.437Z,99.90
2023-04-27T03:27:32.242Z,99.90
2023-04-27T03:29:59.027Z,99.90
2023-04-27T03:32:26.013Z,99.90
2023-04-27T03:34:54.142Z,99.90
2023-04-27T03:37:21.075Z,99.90
2023-04-27T03:39:47.858Z,99.90
2023-04-27T03:42:14.875Z,99.90
2023-04-27T03:44:41.769Z,99.90
2023-04-27T03:47:09.122Z,99.90
2023-04-27T03:49:38.197Z,99.90
2023-04-27T03:52:06.315Z,99.90
2023-04-27T03:54:34.708Z,99.90
2023-04-27T03:57:02.761Z,99.90
2023-04-27T03:59:30.284Z,99.90
2023-04-27T04:01:59.508Z,99.90
2023-04-27T04:04:28.125Z,99.90
2023-04-27T04:06:55.012Z,99.90
2023-04-27T04:09:23.903Z,99.90
2023-04-27T04:11:52.421Z,99.90
2023-04-27T04:14:19.727Z,99.90
2023-04-27T04:16:46.805Z,99.90
2023-04-27T04:19:13.908Z,99.90
2023-04-27T04:21:41.709Z,99.90
2023-04-27T04:24:10.190Z,99.90
2023-04-27T04:26:38.685Z,99.90
2023-04-27T04:29:05.593Z,99.90
2023-04-27T04:31:33.814Z,99.90
2023-04-27T04:34:01.833Z,99.90
2023-04-27T04:36:28.743Z,99.90
2023-04-27T04:38:57.217Z,99.90
2023-04-27T04:41:25.554Z,99.90
2023-04-27T04:43:52.458Z,99.90
2023-04-27T04:46:20.037Z,99.90
2023-04-27T04:48:47.128Z,99.90
2023-04-27T04:51:14.339Z,99.90
2023-04-27T04:53:41.089Z,99.90
2023-04-27T04:56:11.966Z,99.90
2023-04-27T04:58:39.026Z,99.90
2023-04-27T05:01:06.743Z,99.90
2023-04-27T05:03:34.024Z,99.90
2023-04-27T05:06:01.079Z,99.90
2023-04-27T05:08:28.045Z,99.90
2023-04-27T05:10:54.802Z,99.90
2023-04-27T05:13:21.707Z,99.90
2023-04-27T05:15:48.571Z,99.90
2023-04-27T05:18:15.549Z,99.90
2023-04-27T05:20:42.320Z,99.90
2023-04-27T05:23:09.117Z,99.90
2023-04-27T05:25:41.796Z,99.90
2023-04-27T05:28:09.526Z,99.90
2023-04-27T05:30:36.448Z,99.90
2023-04-27T05:33:04.248Z,99.90
2023-04-27T05:35:31.793Z,99.90
2023-04-27T05:37:58.892Z,99.90
2023-04-27T05:40:26.103Z,99.90
2023-04-27T05:42:53.036Z,99.90
2023-04-27T05:45:20.002Z,99.90
2023-04-27T05:47:46.874Z,99.90
2023-04-27T05:50:13.848Z,99.90
2023-04-27T05:52:40.732Z,99.90
2023-04-27T05:55:08.243Z,99.90
2023-04-27T05:57:35.119Z,99.90
2023-04-27T06:00:02.535Z,99.90
2023-04-27T06:02:39.355Z,99.90
2023-04-27T06:05:07.048Z,99.90
2023-04-27T06:07:33.968Z,99.90
2023-04-27T06:10:00.925Z,99.90
2023-04-27T06:12:27.741Z,99.90
2023-04-27T06:14:54.619Z,99.90
2023-04-27T06:17:21.971Z,99.90
2023-04-27T06:19:48.934Z,99.90
2023-04-27T06:22:15.820Z,99.90
2023-04-27T06:24:42.746Z,99.90
2023-04-27T06:27:09.663Z,99.90
2023-04-27T06:29:36.814Z,99.90
2023-04-27T06:32:06.718Z,99.90
2023-04-27T06:34:36.754Z,99.90
2023-04-27T06:37:03.588Z,99.90
2023-04-27T06:39:30.423Z,99.90
2023-04-27T06:41:58.455Z,99.90
2023-04-27T06:44:25.662Z,99.90
2023-04-27T06:46:52.441Z,99.90
2023-04-27T06:49:19.242Z,99.90
2023-04-27T06:51:46.840Z,99.90
2023-04-27T06:54:13.869Z,99.90
2023-04-27T06:56:40.853Z,99.90
2023-04-27T06:59:08.453Z,99.90
2023-04-27T07:01:35.436Z,99.90
2023-04-27T07:04:03.890Z,99.90
2023-04-27T07:06:31.650Z,99.90
2023-04-27T07:08:58.785Z,99.90
2023-04-27T07:11:26.245Z,99.90
2023-04-27T07:13:53.062Z,99.90
2023-04-27T07:16:20.035Z,99.90
2023-04-27T07:18:47.102Z,99.90
2023-04-27T07:21:14.018Z,99.90
2023-04-27T07:23:43.834Z,99.90
2023-04-27T07:26:10.764Z,99.90
2023-04-27T07:28:38.400Z,99.90
2023-04-27T07:31:06.208Z,99.90
2023-04-27T07:33:33.748Z,99.90
2023-04-27T07:36:01.950Z,99.90
2023-04-27T07:38:31.944Z,99.90
2023-04-27T07:41:00.213Z,99.90
2023-04-27T07:43:27.284Z,99.90
2023-04-27T07:45:55.667Z,99.90
2023-04-27T07:48:22.916Z,99.90
2023-04-27T07:50:49.981Z,99.90
2023-04-27T07:53:17.113Z,99.90
2023-04-27T07:55:44.557Z,99.90
2023-04-27T07:58:11.739Z,99.90
2023-04-27T08:00:38.614Z,99.90
2023-04-27T08:03:06.247Z,99.90
2023-04-27T08:05:33.511Z,99.90
2023-04-27T08:08:00.665Z,99.90
2023-04-27T08:10:27.668Z,99.90
2023-04-27T08:12:54.554Z,99.90
2023-04-27T08:15:21.460Z,99.90
2023-04-27T08:17:48.502Z,99.90
2023-04-27T08:20:15.375Z,99.90
2023-04-27T08:22:42.705Z,99.90
2023-04-27T08:25:09.816Z,99.90
2023-04-27T08:27:40.340Z,99.90
2023-04-27T08:30:07.790Z,99.90
2023-04-27T08:32:34.694Z,99.90
2023-04-27T08:35:01.678Z,99.90
2023-04-27T08:37:28.476Z,99.90
2023-04-27T08:39:55.526Z,99.90
2023-04-27T08:42:22.322Z,99.90
2023-04-27T08:44:49.158Z,99.90
2023-04-27T08:47:15.961Z,99.90
2023-04-27T08:49:42.925Z,99.90
2023-04-27T08:52:16.270Z,99.90
2023-04-27T08:54:43.550Z,99.90
2023-04-27T08:57:13.640Z,99.90
2023-04-27T08:59:40.848Z,99.90
2023-04-27T09:02:18.179Z,99.90
2023-04-27T09:04:45.418Z,99.90
2023-04-27T09:07:17.020Z,99.90
2023-04-27T09:09:44.487Z,99.90
2023-04-27T09:12:15.743Z,99.90
2023-04-27T09:14:42.956Z,99.90
2023-04-27T09:17:09.745Z,99.90
2023-04-27T09:19:36.555Z,99.90
2023-04-27T09:22:11.227Z,99.90
2023-04-27T09:24:38.178Z,99.90
2023-04-27T09:27:06.261Z,99.90
2023-04-27T09:29:36.912Z,99.90
2023-04-27T09:32:17.680Z,99.90
2023-04-27T09:34:44.773Z,99.90
2023-04-27T09:37:11.593Z,99.90
2023-04-27T09:39:38.572Z,99.90
2023-04-27T09:42:05.519Z,99.90
2023-04-27T09:44:32.536Z,99.90
2023-04-27T09:47:00.249Z,99.90
2023-04-27T09:49:28.166Z,99.90
2023-04-27T09:51:58.961Z,99.90
2023-04-27T09:54:30.219Z,99.90
2023-04-27T09:57:30.713Z,99.90
2023-04-27T10:00:12.730Z,99.90
2023-04-27T10:02:53.611Z,99.90
2023-04-27T10:06:11.967Z,99.70
2023-04-27T10:08:38.840Z,97.40
2023-04-27T10:11:21.511Z,99.90
2023-04-27T10:13:54.467Z,98.50
2023-04-27T10:16:22.407Z,99.60
2023-04-27T10:18:55.709Z,99.00
2023-04-27T10:21:22.700Z,97.40
2023-04-27T10:23:51.173Z,98.30
2023-04-27T10:26:27.789Z,98.50
2023-04-27T10:28:58.698Z,97.50
2023-04-27T10:31:29.449Z,97.90
2023-04-27T10:34:07.397Z,98.00
2023-04-27T10:36:38.202Z,97.00
2023-04-27T10:39:18.509Z,97.60
2023-04-27T10:41:55.924Z,96.50
2023-04-27T10:44:30.221Z,96.50
2023-04-27T10:47:19.872Z,96.50
2023-04-27T10:49:46.668Z,96.90
2023-04-27T10:52:13.560Z,97.40
2023-04-27T10:54:45.738Z,96.80
2023-04-27T10:57:12.850Z,96.60
2023-04-27T10:59:53.869Z,94.90
2023-04-27T11:02:27.883Z,95.40
2023-04-27T11:04:55.747Z,96.10
2023-04-27T11:07:26.511Z,96.90
2023-04-27T11:09:53.563Z,96.00
2023-04-27T11:12:20.366Z,96.50
2023-04-27T11:14:47.867Z,96.20
2023-04-27T11:17:14.638Z,95.90
2023-04-27T11:19:47.924Z,96.20
2023-04-27T11:22:18.219Z,95.10
2023-04-27T11:24:49.224Z,96.30
2023-04-27T11:27:16.506Z,95.10
2023-04-27T11:29:43.411Z,95.20
2023-04-27T11:32:19.983Z,95.70
2023-04-27T11:34:51.044Z,95.00
2023-04-27T11:37:25.431Z,95.30
2023-04-27T11:39:54.583Z,93.70
2023-04-27T11:42:22.728Z,95.10
2023-04-27T11:44:56.547Z,95.30
2023-04-27T11:47:25.102Z,94.50
2023-04-27T11:49:52.935Z,95.00
2023-04-27T11:52:19.839Z,94.60
2023-04-27T11:54:51.005Z,95.10
2023-04-27T11:57:18.200Z,95.00
2023-04-27T11:59:45.139Z,94.80
2023-04-27T12:02:12.596Z,95.10
2023-04-27T12:04:39.839Z,94.80
2023-04-27T12:07:07.045Z,93.70
2023-04-27T12:09:34.148Z,94.50
2023-04-27T12:12:00.946Z,94.40
2023-04-27T12:14:27.917Z,94.40
2023-04-27T12:16:54.773Z,94.20
2023-04-27T12:19:24.327Z,95.20
2023-04-27T12:21:54.109Z,94.30
2023-04-27T12:24:21.730Z,94.00
2023-04-27T12:26:48.751Z,94.30
2023-04-27T12:29:16.038Z,93.90
2023-04-27T12:31:42.916Z,94.00
2023-04-27T12:34:09.843Z,94.10
2023-04-27T12:36:36.781Z,94.20
2023-04-27T12:39:21.596Z,94.30
2023-04-27T12:41:49.028Z,93.60
2023-04-27T12:44:16.730Z,94.40
2023-04-27T12:46:44.468Z,94.00
2023-04-27T12:49:12.504Z,93.80
2023-04-27T12:51:39.472Z,93.70
2023-04-27T12:54:07.294Z,93.70
2023-04-27T12:56:34.210Z,93.80
2023-04-27T12:59:01.016Z,93.30
2023-04-27T13:01:28.165Z,93.20
2023-04-27T13:03:56.184Z,93.30
2023-04-27T13:06:24.520Z,93.60
2023-04-27T13:08:51.385Z,93.40
2023-04-27T13:11:18.577Z,93.50
2023-04-27T13:13:45.694Z,93.10
2023-04-27T13:16:12.950Z,92.50
2023-04-27T13:18:40.753Z,93.00
2023-04-27T13:21:08.087Z,93.30
2023-04-27T13:23:34.977Z,92.90
2023-04-27T13:26:02.282Z,92.90
2023-04-27T13:28:29.104Z,92.80
2023-04-27T13:30:56.586Z,93.30
2023-04-27T13:33:24.379Z,92.70
2023-04-27T13:35:51.663Z,93.10
2023-04-27T13:38:18.537Z,93.00
2023-04-27T13:40:45.336Z,92.90
2023-04-27T13:43:12.165Z,93.00
2023-04-27T13:45:39.770Z,93.50
2023-04-27T13:48:07.056Z,93.00
2023-04-27T13:50:33.924Z,93.40
2023-04-27T13:53:01.777Z,93.00
2023-04-27T13:55:28.607Z,93.50
2023-04-27T13:57:55.405Z,93.80
2023-04-27T14:00:22.350Z,93.50
2023-04-27T14:02:49.231Z,93.60
2023-04-27T14:05:16.125Z,93.70
2023-04-27T14:07:43.089Z,93.40
2023-04-27T14:10:10.334Z,93.60
2023-04-27T14:12:37.240Z,93.70
2023-04-27T14:15:04.398Z,94.10
2023-04-27T14:17:31.283Z,94.10
2023-04-27T14:19:58.144Z,93.90
2023-04-27T14:22:25.043Z,94.30
2023-04-27T14:24:52.057Z,94.30
2023-04-27T14:27:19.114Z,94.10
2023-04-27T14:29:46.040Z,93.80
2023-04-27T14:32:12.995Z,93.90
2023-04-27T14:34:39.918Z,94.40
2023-04-27T14:37:06.857Z,94.40
2023-04-27T14:39:34.006Z,94.40
2023-04-27T14:42:01.250Z,94.30
2023-04-27T14:44:28.203Z,94.70
2023-04-27T14:46:55.145Z,94.60
2023-04-27T14:49:22.151Z,94.80
2023-04-27T14:51:49.087Z,94.70
2023-04-27T14:54:16.069Z,94.50
2023-04-27T14:56:42.860Z,94.70
2023-04-27T14:59:09.682Z,94.90
2023-04-27T15:01:37.209Z,94.80
2023-04-27T15:04:04.567Z,95.00
2023-04-27T15:06:32.114Z,95.50
2023-04-27T15:08:58.958Z,95.90
2023-04-27T15:11:25.868Z,95.90
2023-04-27T15:13:52.774Z,96.00
2023-04-27T15:16:20.492Z,95.60
2023-04-27T15:18:47.483Z,96.00
2023-04-27T15:21:14.399Z,96.70
2023-04-27T15:23:41.217Z,98.20
2023-04-27T15:26:08.378Z,97.90
2023-04-27T15:28:36.246Z,99.20
2023-04-27T15:31:03.503Z,99.80
2023-04-27T15:33:30.628Z,99.90
2023-04-27T15:35:59.002Z,99.90
2023-04-27T15:38:26.704Z,99.90
2023-04-27T15:40:53.530Z,99.90
2023-04-27T15:43:21.736Z,99.90
2023-04-27T15:45:49.005Z,99.90
2023-04-27T15:48:16.415Z,99.90
2023-04-27T15:50:44.774Z,99.90
2023-04-27T15:53:12.121Z,99.90
2023-04-27T15:55:38.992Z,99.90
2023-04-27T15:58:05.913Z,99.90
2023-04-27T16:00:32.989Z,99.90
2023-04-27T16:03:00.600Z,99.90
2023-04-27T16:05:27.677Z,99.90
2023-04-27T16:07:54.538Z,99.90
2023-04-27T16:10:21.422Z,99.90
2023-04-27T16:12:48.232Z,99.90
2023-04-27T16:15:15.293Z,99.90
2023-04-27T16:17:42.136Z,99.90
2023-04-27T16:20:10.440Z,99.90
2023-04-27T16:22:37.799Z,99.90
2023-04-27T16:25:10.098Z,99.90
2023-04-27T16:27:37.843Z,99.90
2023-04-27T16:30:07.555Z,99.90
2023-04-27T16:32:35.561Z,99.90
2023-04-27T16:35:03.137Z,99.90
2023-04-27T16:37:30.340Z,99.90
2023-04-27T16:39:59.730Z,99.90
2023-04-27T16:42:27.534Z,99.90
2023-04-27T16:44:54.791Z,99.90
2023-04-27T16:47:22.097Z,99.90
2023-04-27T16:49:52.288Z,99.90
2023-04-27T16:52:19.924Z,99.90
2023-04-27T16:54:47.046Z,99.90
2023-04-27T16:57:13.985Z,99.90
2023-04-27T16:59:40.869Z,99.90
2023-04-27T17:02:23.051Z,99.90
2023-04-27T17:04:51.754Z,99.90
2023-04-27T17:07:18.834Z,99.90
2023-04-27T17:09:45.737Z,99.90
2023-04-27T17:12:13.897Z,99.90
2023-04-27T17:14:40.983Z,99.90
2023-04-27T17:17:07.919Z,99.90
2023-04-27T17:19:39.673Z,99.90
2023-04-27T17:22:08.557Z,99.90
2023-04-27T17:24:35.392Z,99.90
2023-04-27T17:27:04.179Z,99.90
2023-04-27T17:29:31.802Z,99.90
2023-04-27T17:31:58.730Z,99.90
2023-04-27T17:34:25.854Z,99.90
2023-04-27T17:36:52.695Z,99.90
2023-04-27T17:39:22.533Z,99.90
2023-04-27T17:41:49.531Z,99.90
2023-04-27T17:44:16.583Z,99.90
2023-04-27T17:46:47.322Z,99.90
2023-04-27T17:49:15.685Z,99.90
2023-04-27T17:51:43.814Z,99.90
2023-04-27T17:54:11.605Z,99.90
2023-04-27T17:56:39.065Z,99.90
2023-04-27T17:59:07.420Z,99.90
2023-04-27T18:01:34.274Z,99.90
2023-04-27T18:04:03.984Z,99.90
2023-04-27T18:06:32.028Z,99.90
2023-04-27T18:08:58.995Z,99.90
2023-04-27T18:11:25.942Z,99.90
2023-04-27T18:13:54.363Z,99.90
2023-04-27T18:16:21.449Z,99.90
2023-04-27T18:18:48.389Z,99.90
2023-04-27T18:21:15.538Z,99.90
2023-04-27T18:23:42.704Z,99.90
2023-04-27T18:26:11.536Z,99.90
2023-04-27T18:28:40.126Z,99.90
2023-04-27T18:31:16.955Z,99.90
2023-04-27T18:33:47.184Z,99.90
2023-04-27T18:36:14.134Z,99.90
2023-04-27T18:38:41.069Z,99.90
2023-04-27T18:41:07.972Z,99.90
2023-04-27T18:43:36.459Z,99.90
2023-04-27T18:46:04.036Z,99.90
2023-04-27T18:48:31.007Z,99.90
2023-04-27T18:50:57.965Z,99.90
2023-04-27T18:53:26.703Z,99.90
2023-04-27T18:55:53.680Z,99.90
2023-04-27T18:58:20.596Z,99.90
2023-04-27T19:00:47.528Z,99.90
2023-04-27T19:03:14.549Z,99.90
2023-04-27T19:05:43.122Z,99.90
2023-04-27T19:08:10.446Z,99.90
2023-04-27T19:10:37.404Z,99.90
2023-04-27T19:13:04.300Z,99.90
2023-04-27T19:15:31.266Z,99.90
2023-04-27T19:18:07.011Z,99.90
2023-04-27T19:20:37.435Z,99.90
2023-04-27T19:23:05.179Z,99.90
2023-04-27T19:25:32.055Z,99.90
2023-04-27T19:27:59.014Z,99.90
2023-04-27T19:30:25.967Z,99.90
2023-04-27T19:32:52.974Z,99.90
2023-04-27T19:35:20.487Z,99.90
2023-04-27T19:37:47.428Z,99.90
2023-04-27T19:40:15.049Z,99.90
2023-04-27T19:42:42.095Z,99.90
2023-04-27T19:45:09.705Z,99.90
2023-04-27T19:47:37.184Z,99.90
2023-04-27T19:50:04.971Z,99.90
2023-04-27T19:52:31.853Z,99.90
2023-04-27T19:55:00.058Z,99.90
2023-04-27T19:57:27.345Z,99.90
2023-04-27T19:59:54.216Z,99.90
2023-04-27T20:02:21.672Z,99.90
2023-04-27T20:04:49.017Z,99.90
2023-04-27T20:07:16.213Z,99.90
2023-04-27T20:09:43.072Z,99.90
2023-04-27T20:12:23.659Z,99.90
2023-04-27T20:14:56.199Z,99.90
2023-04-27T20:17:25.630Z,99.90
2023-04-27T20:19:56.135Z,99.90
2023-04-27T20:22:23.375Z,99.90
2023-04-27T20:24:50.527Z,99.90
2023-04-27T20:27:17.387Z,99.90
2023-04-27T20:29:47.382Z,99.90
2023-04-27T20:32:14.301Z,99.90
2023-04-27T20:34:41.103Z,99.90
2023-04-27T20:37:07.997Z,99.90
2023-04-27T20:39:35.102Z,99.90
2023-04-27T20:42:02.151Z,99.90
2023-04-27T20:44:28.966Z,99.90
2023-04-27T20:46:56.042Z,99.90
2023-04-27T20:49:33.913Z,99.90
2023-04-27T20:52:02.433Z,99.90
2023-04-27T20:54:32.888Z,99.90
2023-04-27T20:57:03.711Z,99.90
2023-04-27T20:59:30.650Z,99.90
2023-04-27T21:01:57.554Z,99.90
2023-04-27T21:04:24.436Z,99.90
2023-04-27T21:06:51.319Z,99.90
2023-04-27T21:09:18.292Z,99.90
2023-04-27T21:11:45.133Z,99.90
2023-04-27T21:14:12.067Z,99.90
2023-04-27T21:16:38.912Z,99.90
2023-04-27T21:19:05.760Z,99.90
2023-04-27T21:21:32.531Z,99.90
2023-04-27T21:24:07.335Z,99.90
2023-04-27T21:26:35.320Z,99.90
2023-04-27T21:29:05.376Z,99.90
2023-04-27T21:31:33.230Z,99.90
2023-04-27T21:34:00.783Z,99.90
2023-04-27T21:36:27.676Z,99.90
2023-04-27T21:38:54.657Z,99.90
2023-04-27T21:41:24.051Z,99.90
2023-04-27T21:43:51.281Z,99.90
2023-04-27T21:46:18.300Z,99.90
2023-04-27T21:48:45.351Z,99.90
2023-04-27T21:51:12.207Z,99.90
2023-04-27T21:53:39.137Z,99.90
2023-04-27T21:56:06.526Z,99.90
2023-04-27T21:58:33.356Z,99.90
2023-04-27T22:01:00.193Z,99.90
2023-04-27T22:03:28.443Z,99.90
2023-04-27T22:05:57.543Z,99.90
2023-04-27T22:08:24.529Z,99.90
2023-04-27T22:10:51.438Z,99.90
2023-04-27T22:13:19.623Z,99.90
2023-04-27T22:15:47.629Z,99.90
2023-04-27T22:18:15.596Z,99.90
2023-04-27T22:20:42.952Z,99.90
2023-04-27T22:23:09.963Z,99.90
2023-04-27T22:25:36.802Z,99.90
2023-04-27T22:28:03.667Z,99.90
2023-04-27T22:30:30.587Z,99.90
2023-04-27T22:32:57.698Z,99.90
2023-04-27T22:35:27.189Z,99.90
2023-04-27T22:37:55.839Z,99.90
2023-04-27T22:40:25.716Z,99.90
2023-04-27T22:42:56.149Z,99.90
2023-04-27T22:45:23.446Z,99.90
2023-04-27T22:47:50.404Z,99.90
2023-04-27T22:50:17.499Z,99.90
2023-04-27T22:52:44.410Z,99.90
2023-04-27T22:55:11.635Z,99.90
2023-04-27T22:57:38.802Z,99.90
2023-04-27T23:00:06.385Z,99.90
2023-04-27T23:02:33.395Z,99.90
2023-04-27T23:05:00.901Z,99.90
2023-04-27T23:07:28.567Z,99.90
2023-04-27T23:09:56.153Z,99.90
2023-04-27T23:12:26.825Z,99.90
2023-04-27T23:14:53.651Z,99.90
2023-04-27T23:17:22.753Z,99.90
2023-04-27T23:19:49.764Z,99.90
2023-04-27T23:22:16.614Z,99.90
2023-04-27T23:24:43.502Z,99.90
2023-04-27T23:27:10.324Z,99.90
2023-04-27T23:29:37.362Z,99.90
2023-04-27T23:32:05.761Z,99.90
2023-04-27T23:34:32.918Z,99.90
2023-04-27T23:36:59.926Z,99.90
2023-04-27T23:39:28.147Z,99.90
2023-04-27T23:41:55.076Z,99.90
2023-04-27T23:44:22.161Z,99.90
2023-04-27T23:46:49.246Z,99.90
2023-04-27T23:49:16.472Z,99.90
2023-04-27T23:51:45.805Z,99.90
2023-04-27T23:54:13.066Z,99.90
2023-04-27T23:56:39.971Z,99.90
2023-04-27T23:59:06.849Z,99.90
